Time;durP1;ratioP1;P1;durP2;ratioP2;P2;SDS_P1;SDS_P2;PMS_P1;PMS_P2;Temp;Humidity;BMP_temperature;BMP_pressure;BME280_temperature;BME280_humidity;BME280_pressure;Samples;Min_cycle;Max_cycle;Signal;HPM_P1;HPM_P2
2023/06/13 00:00:09;;;;;;;9.77;7.90;;;17.50;49.30;;;;;;5060138;28;20029;-75
2023/06/13 00:02:37;;;;;;;8.98;7.97;;;17.50;49.50;;;;;;5059665;28;20032;-77
2023/06/13 00:05:08;;;;;;;9.57;7.53;;;17.40;49.30;;;;;;5062570;28;20468;-77
2023/06/13 00:07:37;;;;;;;11.32;8.43;;;17.40;49.70;;;;;;5060858;28;20040;-76
2023/06/13 00:10:05;;;;;;;9.80;7.70;;;17.40;49.70;;;;;;5058478;28;20655;-78
2023/06/13 00:12:32;;;;;;;11.68;7.32;;;17.30;49.80;;;;;;5062066;28;20037;-77
2023/06/13 00:15:01;;;;;;;8.82;7.45;;;17.30;50.00;;;;;;5064441;28;20029;-77
2023/06/13 00:17:29;;;;;;;10.43;7.82;;;17.30;49.90;;;;;;5061190;28;20039;-78
2023/06/13 00:19:56;;;;;;;11.73;8.45;;;17.30;50.10;;;;;;5062251;28;20032;-76
2023/06/13 00:22:24;;;;;;;11.38;8.15;;;17.30;50.20;;;;;;5063779;28;20041;-76
2023/06/13 00:24:50;;;;;;;13.77;8.40;;;17.20;50.30;;;;;;5061529;28;20140;-74
2023/06/13 00:27:17;;;;;;;9.38;7.68;;;17.20;50.40;;;;;;5061906;28;20112;-75
2023/06/13 00:29:43;;;;;;;9.27;7.43;;;17.20;50.40;;;;;;5066135;28;20046;-75
2023/06/13 00:32:10;;;;;;;10.95;7.10;;;17.20;50.50;;;;;;5062191;28;20036;-75
2023/06/13 00:34:38;;;;;;;10.65;7.13;;;17.20;50.60;;;;;;5066523;28;20063;-76
2023/06/13 00:37:05;;;;;;;8.68;6.82;;;17.10;50.70;;;;;;5062764;28;20423;-75
2023/06/13 00:39:32;;;;;;;9.10;6.43;;;17.10;50.60;;;;;;5061682;28;20037;-75
2023/06/13 00:42:01;;;;;;;7.53;6.00;;;17.10;50.70;;;;;;5080539;28;20052;-77
2023/06/13 00:44:27;;;;;;;9.25;5.60;;;17.00;50.70;;;;;;5061379;28;20480;-75
2023/06/13 00:46:55;;;;;;;8.98;5.60;;;17.00;50.70;;;;;;5061323;28;20568;-77
2023/06/13 00:49:22;;;;;;;9.20;5.40;;;17.00;50.70;;;;;;5062763;28;20032;-76
2023/06/13 00:51:48;;;;;;;5.18;4.50;;;16.90;50.70;;;;;;5066491;28;20041;-77
2023/06/13 00:54:16;;;;;;;4.97;4.32;;;16.90;50.90;;;;;;5063164;28;20029;-75
2023/06/13 00:56:45;;;;;;;8.57;4.40;;;16.90;51.10;;;;;;5078086;28;20051;-76
2023/06/13 00:59:13;;;;;;;11.25;5.30;;;16.90;51.00;;;;;;5042537;28;20448;-75
2023/06/13 01:01:42;;;;;;;9.45;5.13;;;16.90;51.00;;;;;;5064621;28;20040;-75
2023/06/13 01:04:08;;;;;;;7.05;4.10;;;16.90;51.20;;;;;;5063431;28;20037;-75
2023/06/13 01:06:40;;;;;;;9.63;3.60;;;16.80;51.20;;;;;;5062112;28;20032;-76
2023/06/13 01:09:08;;;;;;;6.35;4.10;;;16.80;51.20;;;;;;5066615;28;20024;-76
2023/06/13 01:11:41;;;;;;;4.10;3.65;;;16.80;51.40;;;;;;5063879;28;20580;-77
2023/06/13 01:14:30;;;;;;;9.48;3.67;;;16.80;51.40;;;;;;5065708;28;20574;-75
2023/06/13 01:17:04;;;;;;;5.03;3.35;;;16.80;51.50;;;;;;5061965;28;20041;-77
2023/06/13 01:19:38;;;;;;;3.75;3.10;;;16.80;51.50;;;;;;5061596;28;20040;-76
2023/06/13 01:22:42;;;;;;;6.60;3.10;;;16.80;51.40;;;;;;5061733;28;20179;-76
2023/06/13 01:25:59;;;;;;;5.95;3.30;;;16.80;51.60;;;;;;5074364;28;20044;-76
2023/06/13 01:28:26;;;;;;;;;;;16.80;51.50;;;;;;5021157;28;20064;-76
2023/06/13 01:30:55;;;;;;;4.32;3.13;;;16.90;51.40;;;;;;5063689;28;19920;-76
2023/06/13 01:33:22;;;;;;;4.28;3.15;;;16.90;51.40;;;;;;5064348;28;20481;-76
2023/06/13 01:35:49;;;;;;;3.42;2.67;;;17.00;51.50;;;;;;5048838;28;20062;-76
2023/06/13 01:38:15;;;;;;;3.20;2.85;;;17.00;51.30;;;;;;5063417;28;20115;-76
2023/06/13 01:40:43;;;;;;;5.20;2.78;;;17.10;51.40;;;;;;5064984;28;20387;-77
2023/06/13 01:43:09;;;;;;;3.72;2.70;;;17.00;51.20;;;;;;5065878;28;20033;-77
2023/06/13 01:45:36;;;;;;;4.72;2.95;;;17.10;51.20;;;;;;5061804;28;20029;-76
2023/06/13 01:48:12;;;;;;;5.03;2.95;;;17.00;51.10;;;;;;5060016;28;20411;-76
2023/06/13 01:51:11;;;;;;;5.47;2.50;;;17.00;51.00;;;;;;5061704;28;20024;-77
2023/06/13 01:53:49;;;;;;;3.45;2.13;;;16.90;50.90;;;;;;5044274;28;20040;-77
2023/06/13 01:56:19;;;;;;;3.53;2.67;;;16.90;51.10;;;;;;5043399;28;20121;-77
2023/06/13 01:58:55;;;;;;;2.92;2.63;;;16.90;51.10;;;;;;5060800;28;20032;-75
2023/06/13 02:01:24;;;;;;;5.40;2.85;;;16.90;51.20;;;;;;5061685;28;20109;-76
2023/06/13 02:03:50;;;;;;;3.05;2.65;;;16.90;51.10;;;;;;5047296;28;20033;-76
2023/06/13 02:06:17;;;;;;;5.20;2.63;;;16.90;51.20;;;;;;5061403;28;20033;-77
2023/06/13 02:08:44;;;;;;;4.22;2.38;;;16.90;51.90;;;;;;5043166;28;20034;-77
2023/06/13 02:11:12;;;;;;;5.88;2.67;;;16.90;51.40;;;;;;5060362;28;20056;-77
2023/06/13 02:13:38;;;;;;;4.28;2.75;;;16.90;51.50;;;;;;5060877;28;20041;-77
2023/06/13 02:16:04;;;;;;;3.92;2.50;;;17.00;51.40;;;;;;5064126;28;21049;-77
2023/06/13 02:18:31;;;;;;;4.50;2.65;;;17.00;51.20;;;;;;5063153;28;20086;-77
2023/06/13 02:20:57;;;;;;;6.07;2.60;;;17.10;51.10;;;;;;5062748;28;20053;-74
2023/06/13 02:23:23;;;;;;;3.30;2.47;;;17.20;51.10;;;;;;5064232;28;20040;-76
2023/06/13 02:25:51;;;;;;;2.33;2.03;;;17.20;51.00;;;;;;5059384;28;20025;-77
2023/06/13 02:28:18;;;;;;;3.03;2.38;;;17.30;51.00;;;;;;5076909;28;20041;-76
2023/06/13 02:30:47;;;;;;;4.28;2.25;;;17.30;50.80;;;;;;5060232;28;20052;-77
2023/06/13 02:33:14;;;;;;;5.45;2.50;;;17.40;50.70;;;;;;5075179;28;20044;-76
2023/06/13 02:35:40;;;;;;;3.63;2.50;;;17.50;50.50;;;;;;5074363;28;20170;-76
2023/06/13 02:38:07;;;;;;;4.65;2.20;;;17.60;50.50;;;;;;5061261;28;20060;-76
2023/06/13 02:40:37;;;;;;;3.95;2.20;;;17.70;50.30;;;;;;5060587;28;20045;-76
2023/06/13 02:43:03;;;;;;;3.70;2.10;;;17.80;50.20;;;;;;5059365;28;20037;-77
2023/06/13 02:45:29;;;;;;;4.07;2.38;;;17.90;50.00;;;;;;5075254;28;20032;-77
2023/06/13 02:47:55;;;;;;;3.35;2.40;;;18.00;49.90;;;;;;5059289;28;20166;-78
2023/06/13 02:50:22;;;;;;;3.15;2.50;;;18.10;49.80;;;;;;5064915;28;20043;-77
2023/06/13 02:52:48;;;;;;;3.13;2.30;;;18.20;49.50;;;;;;5058858;28;20101;-77
2023/06/13 02:55:14;;;;;;;2.83;2.42;;;18.30;49.40;;;;;;5060627;28;20033;-78
2023/06/13 02:57:41;;;;;;;3.83;2.22;;;18.30;49.30;;;;;;5063717;28;20186;-76
2023/06/13 03:00:12;;;;;;;4.03;2.60;;;18.50;48.90;;;;;;5061911;28;20041;-78
2023/06/13 03:02:43;;;;;;;3.40;2.17;;;18.60;48.80;;;;;;5058993;28;20086;-77
2023/06/13 03:05:15;;;;;;;5.70;2.28;;;18.70;48.60;;;;;;5047563;28;20059;-77
2023/06/13 03:07:46;;;;;;;3.55;2.20;;;18.70;48.70;;;;;;5060753;28;20037;-78
2023/06/13 03:10:16;;;;;;;3.67;2.20;;;18.90;48.50;;;;;;5075626;28;20548;-76
2023/06/13 03:12:43;;;;;;;3.85;2.20;;;18.90;49.00;;;;;;5046740;28;20513;-78
2023/06/13 03:15:10;;;;;;;4.78;2.20;;;18.90;48.40;;;;;;5059808;28;20519;-77
2023/06/13 03:17:37;;;;;;;4.45;2.38;;;18.90;48.30;;;;;;5073638;28;20040;-76
2023/06/13 03:20:06;;;;;;;4.15;2.28;;;19.00;48.30;;;;;;5045768;28;20201;-76
2023/06/13 03:22:34;;;;;;;3.83;2.15;;;19.00;48.10;;;;;;5075548;28;20086;-76
2023/06/13 03:25:04;;;;;;;3.15;2.20;;;19.10;47.90;;;;;;5060173;28;20044;-76
2023/06/13 03:27:33;;;;;;;3.90;2.08;;;19.20;47.60;;;;;;5059736;28;20646;-76
2023/06/13 03:29:59;;;;;;;2.50;2.10;;;19.40;47.50;;;;;;5045935;28;20071;-77
2023/06/13 03:32:25;;;;;;;5.93;2.10;;;19.50;47.20;;;;;;5060230;28;20036;-76
2023/06/13 03:34:52;;;;;;;3.47;2.15;;;19.60;47.20;;;;;;5058222;28;20547;-75
2023/06/13 03:37:19;;;;;;;2.80;2.10;;;19.70;47.20;;;;;;5073783;28;20029;-76
2023/06/13 03:39:45;;;;;;;2.58;2.00;;;19.90;47.00;;;;;;5057993;28;20466;-76
2023/06/13 03:42:12;;;;;;;1.90;1.80;;;20.00;46.90;;;;;;5060313;28;20043;-76
2023/06/13 03:44:38;;;;;;;3.85;1.83;;;20.10;46.80;;;;;;5074275;28;20051;-76
2023/06/13 03:47:05;;;;;;;2.63;1.75;;;20.20;46.60;;;;;;5063400;28;22119;-76
2023/06/13 03:49:31;;;;;;;5.93;2.67;;;20.40;46.60;;;;;;5058321;28;20028;-75
2023/06/13 03:51:57;;;;;;;2.78;1.85;;;20.50;46.50;;;;;;5062105;28;20515;-75
2023/06/13 03:54:24;;;;;;;2.75;1.80;;;20.60;46.40;;;;;;5062573;28;20033;-76
2023/06/13 03:56:50;;;;;;;4.78;2.00;;;20.70;46.20;;;;;;5045271;28;20035;-76
2023/06/13 03:59:16;;;;;;;3.47;2.00;;;20.80;46.10;;;;;;5046367;28;20017;-75
2023/06/13 04:01:43;;;;;;;5.47;2.60;;;21.00;45.40;;;;;;5062883;28;20321;-76
2023/06/13 04:04:09;;;;;;;3.10;2.17;;;21.10;45.50;;;;;;5075740;28;20029;-77
2023/06/13 04:06:37;;;;;;;3.28;1.70;;;21.20;45.20;;;;;;5061879;28;20033;-76
2023/06/13 04:09:06;;;;;;;4.05;1.92;;;21.30;45.20;;;;;;5059501;28;20028;-76
2023/06/13 04:11:33;;;;;;;2.60;1.88;;;21.50;44.80;;;;;;5059020;28;20053;-76
2023/06/13 04:14:02;;;;;;;4.30;2.03;;;21.60;44.70;;;;;;5058827;28;20110;-75
2023/06/13 04:16:28;;;;;;;2.92;1.75;;;21.70;44.70;;;;;;5057214;28;20036;-77
2023/06/13 04:18:54;;;;;;;2.72;1.77;;;21.80;44.40;;;;;;5057416;28;20110;-75
2023/06/13 04:21:26;;;;;;;1.70;1.60;;;21.90;44.40;;;;;;5062007;28;20037;-75
2023/06/13 04:23:52;;;;;;;3.00;1.67;;;22.10;44.30;;;;;;5057421;28;20514;-76
2023/06/13 04:26:20;;;;;;;2.05;1.88;;;22.10;44.30;;;;;;5060909;28;20032;-76
2023/06/13 04:28:50;;;;;;;1.90;1.50;;;22.30;44.10;;;;;;5045350;28;20518;-75
2023/06/13 04:31:17;;;;;;;1.95;1.58;;;22.30;43.90;;;;;;5073934;28;20453;-76
2023/06/13 04:33:44;;;;;;;3.22;1.73;;;22.50;43.80;;;;;;5061746;28;20036;-77
2023/06/13 04:36:13;;;;;;;2.85;2.05;;;22.50;43.60;;;;;;5058529;28;20028;-76
2023/06/13 04:38:39;;;;;;;2.10;1.50;;;22.70;43.40;;;;;;5057588;28;20032;-76
2023/06/13 04:41:10;;;;;;;1.60;1.35;;;22.80;43.20;;;;;;5057783;28;20035;-77
2023/06/13 04:43:41;;;;;;;2.75;1.58;;;22.90;43.30;;;;;;5059230;28;20033;-77
2023/06/13 04:46:10;;;;;;;4.47;1.55;;;23.00;43.00;;;;;;5058443;28;20033;-76
2023/06/13 04:48:37;;;;;;;2.78;1.55;;;23.10;42.70;;;;;;5059215;28;20511;-76
2023/06/13 04:51:03;;;;;;;2.65;1.60;;;23.20;42.90;;;;;;5060217;28;20062;-77
2023/06/13 04:53:30;;;;;;;4.55;1.95;;;23.30;42.20;;;;;;5060591;28;20470;-77
2023/06/13 04:56:00;;;;;;;1.55;1.33;;;23.40;42.50;;;;;;5059190;28;20507;-76
2023/06/13 04:58:26;;;;;;;2.58;1.50;;;23.50;42.40;;;;;;5061254;28;20037;-76
2023/06/13 05:00:52;;;;;;;2.88;1.70;;;23.60;42.40;;;;;;5061773;28;20045;-75
2023/06/13 05:03:21;;;;;;;2.13;1.40;;;23.70;42.20;;;;;;5062685;28;20119;-76
2023/06/13 05:05:48;;;;;;;3.25;1.45;;;23.80;41.90;;;;;;5059902;28;20033;-76
2023/06/13 05:08:19;;;;;;;4.40;1.40;;;23.90;41.40;;;;;;5059145;28;20404;-76
2023/06/13 05:10:45;;;;;;;2.95;1.50;;;24.00;41.20;;;;;;5059542;28;20187;-75
2023/06/13 05:13:11;;;;;;;3.80;1.20;;;24.10;42.10;;;;;;5063298;28;20040;-76
2023/06/13 05:15:44;;;;;;;2.08;1.00;;;24.20;41.20;;;;;;5060992;28;20029;-77
2023/06/13 05:18:14;;;;;;;1.58;1.35;;;24.20;41.90;;;;;;5061685;28;20025;-76
2023/06/13 05:20:43;;;;;;;3.22;1.20;;;24.30;41.10;;;;;;5062673;28;20072;-76
2023/06/13 05:23:10;;;;;;;2.67;1.35;;;24.40;40.20;;;;;;5066014;28;20028;-76
2023/06/13 05:25:37;;;;;;;3.72;1.00;;;24.50;40.20;;;;;;5060521;28;20156;-76
2023/06/13 05:28:03;;;;;;;1.92;1.20;;;24.60;39.60;;;;;;5063908;28;20111;-77
2023/06/13 05:30:29;;;;;;;2.55;1.00;;;24.60;39.70;;;;;;5061531;28;20032;-77
2023/06/13 05:32:56;;;;;;;3.28;1.20;;;24.70;39.40;;;;;;5062075;28;21556;-77
2023/06/13 05:35:23;;;;;;;2.80;1.50;;;24.80;39.20;;;;;;5063446;28;20376;-79
2023/06/13 05:37:50;;;;;;;1.48;1.10;;;24.80;39.40;;;;;;5060033;28;20029;-78
2023/06/13 05:40:16;;;;;;;1.00;1.00;;;25.00;38.80;;;;;;5048538;28;20033;-79
2023/06/13 05:42:42;;;;;;;3.10;1.17;;;25.00;40.00;;;;;;5062137;28;20039;-79
2023/06/13 05:45:09;;;;;;;1.58;0.88;;;25.10;40.50;;;;;;5077753;28;20447;-78
2023/06/13 05:47:35;;;;;;;0.88;0.85;;;25.20;41.00;;;;;;5048049;28;20037;-78
2023/06/13 05:50:02;;;;;;;1.25;1.08;;;25.30;40.40;;;;;;5047519;28;20689;-78
2023/06/13 05:52:28;;;;;;;4.18;1.48;;;25.40;40.50;;;;;;5064428;28;20723;-77
2023/06/13 05:54:54;;;;;;;1.88;0.95;;;25.50;38.90;;;;;;5062011;28;20083;-78
2023/06/13 05:57:20;;;;;;;1.73;1.05;;;25.50;38.70;;;;;;5059872;28;20595;-77
2023/06/13 05:59:46;;;;;;;1.58;1.00;;;25.60;39.00;;;;;;5060863;28;20040;-78
2023/06/13 06:02:13;;;;;;;1.20;0.80;;;25.60;38.80;;;;;;5061896;28;20661;-75
2023/06/13 06:04:39;;;;;;;1.77;1.27;;;25.60;37.90;;;;;;5060784;28;20037;-78
2023/06/13 06:07:05;;;;;;;2.15;0.98;;;25.70;38.10;;;;;;5062988;28;20106;-79
2023/06/13 06:09:31;;;;;;;3.70;1.02;;;25.70;37.60;;;;;;5060300;28;20090;-78
2023/06/13 06:11:57;;;;;;;2.05;1.00;;;25.80;38.40;;;;;;5059913;28;20048;-77
2023/06/13 06:14:23;;;;;;;4.40;0.93;;;25.90;39.40;;;;;;5069306;28;20041;-79
2023/06/13 06:16:52;;;;;;;4.53;1.13;;;25.90;38.30;;;;;;5063556;28;20039;-76
2023/06/13 06:19:18;;;;;;;3.60;1.05;;;25.90;37.50;;;;;;5063670;28;20541;-79
2023/06/13 06:21:44;;;;;;;3.22;1.20;;;25.90;37.00;;;;;;5061667;28;20134;-80
2023/06/13 06:24:10;;;;;;;4.00;1.30;;;26.00;37.50;;;;;;5062292;28;20138;-79
2023/06/13 06:26:36;;;;;;;2.28;0.88;;;26.10;38.10;;;;;;5063640;28;20036;-76
2023/06/13 06:29:02;;;;;;;2.60;1.15;;;26.10;38.20;;;;;;5060949;28;20039;-79
2023/06/13 06:31:28;;;;;;;1.23;1.10;;;26.20;37.40;;;;;;5064662;28;20033;-78
2023/06/13 06:33:54;;;;;;;1.20;0.90;;;26.20;37.40;;;;;;5063143;28;20510;-77
2023/06/13 06:36:23;;;;;;;3.08;1.40;;;26.30;36.90;;;;;;5059982;28;20028;-79
2023/06/13 06:38:49;;;;;;;1.85;1.17;;;26.20;36.40;;;;;;5060501;28;20036;-76
2023/06/13 06:41:16;;;;;;;2.13;1.50;;;26.20;36.50;;;;;;5061265;28;20021;-77
2023/06/13 06:43:42;;;;;;;3.83;1.67;;;26.20;36.50;;;;;;5063455;28;20041;-77
2023/06/13 06:46:10;;;;;;;3.05;1.60;;;26.20;36.60;;;;;;5065031;28;20028;-77
2023/06/13 06:48:36;;;;;;;2.28;1.45;;;26.10;36.20;;;;;;5063844;28;20500;-77
2023/06/13 06:51:02;;;;;;;4.55;1.50;;;26.20;36.50;;;;;;5064218;28;20040;-76
2023/06/13 06:53:28;;;;;;;8.73;1.20;;;26.20;36.00;;;;;;5065434;28;20040;-85
2023/06/13 06:55:55;;;;;;;6.72;1.40;;;26.20;37.50;;;;;;5065666;28;20033;-79
2023/06/13 06:58:21;;;;;;;5.78;1.50;;;26.20;37.20;;;;;;5066480;28;20499;-79
2023/06/13 07:00:47;;;;;;;12.25;1.85;;;26.20;37.00;;;;;;5077504;28;20047;-75
2023/06/13 07:03:13;;;;;;;1.77;1.27;;;26.20;41.10;;;;;;5083278;28;20090;-76
2023/06/13 07:05:39;;;;;;;2.40;1.20;;;26.20;39.60;;;;;;5067716;28;20039;-80
2023/06/13 07:08:06;;;;;;;4.43;1.60;;;26.20;39.90;;;;;;5063491;28;20825;-80
2023/06/13 07:10:32;;;;;;;4.43;1.08;;;26.20;39.20;;;;;;5074940;28;20143;-76
2023/06/13 07:12:58;;;;;;;5.22;1.40;;;26.20;40.80;;;;;;5060844;28;20124;-76
2023/06/13 07:15:24;;;;;;;4.72;1.50;;;26.10;36.90;;;;;;5062182;28;20028;-77
2023/06/13 07:17:50;;;;;;;4.32;1.42;;;26.10;43.20;;;;;;5062169;28;20063;-78
2023/06/13 07:20:17;;;;;;;5.88;1.38;;;26.00;45.20;;;;;;5059818;28;20032;-74
2023/06/13 07:22:43;;;;;;;3.55;1.63;;;26.00;40.90;;;;;;5060332;28;20047;-74
2023/06/13 07:25:09;;;;;;;2.70;1.67;;;25.90;38.10;;;;;;5060121;28;20048;-75
2023/06/13 07:27:36;;;;;;;6.32;1.80;;;25.90;37.40;;;;;;5063500;28;20036;-74
2023/06/13 07:30:02;;;;;;;5.50;1.55;;;25.90;41.50;;;;;;5059385;28;20079;-74
2023/06/13 07:32:30;;;;;;;6.25;2.05;;;25.90;42.50;;;;;;5059927;28;20170;-78
2023/06/13 07:34:56;;;;;;;2.45;1.50;;;25.90;40.80;;;;;;5062492;28;20115;-75
2023/06/13 07:37:22;;;;;;;3.47;1.70;;;25.90;39.80;;;;;;5061672;28;20028;-76
2023/06/13 07:39:48;;;;;;;2.33;1.45;;;25.90;40.90;;;;;;5059824;28;20044;-75
2023/06/13 07:42:13;;;;;;;2.40;1.30;;;25.80;38.60;;;;;;5059247;28;20060;-75
2023/06/13 07:44:41;;;;;;;3.40;1.52;;;25.80;37.90;;;;;;5059668;28;20070;-76
2023/06/13 07:47:09;;;;;;;1.73;1.60;;;25.80;37.30;;;;;;5061114;28;20029;-77
2023/06/13 07:49:35;;;;;;;2.65;1.40;;;25.80;36.50;;;;;;5059267;28;20068;-76
2023/06/13 07:52:01;;;;;;;2.97;1.20;;;25.70;36.60;;;;;;5060463;28;20040;-75
2023/06/13 07:54:27;;;;;;;2.67;1.25;;;25.70;36.60;;;;;;5060642;28;20036;-73
2023/06/13 07:56:53;;;;;;;3.45;1.65;;;25.60;36.30;;;;;;5060133;28;20519;-73
2023/06/13 07:59:19;;;;;;;2.60;1.20;;;25.60;36.50;;;;;;5060207;28;20063;-75
2023/06/13 08:01:45;;;;;;;1.45;1.30;;;25.50;37.60;;;;;;5061161;28;20047;-78
2023/06/13 08:04:11;;;;;;;3.58;1.33;;;25.50;37.70;;;;;;5061349;28;20118;-77
2023/06/13 08:06:39;;;;;;;3.80;1.30;;;25.60;36.80;;;;;;5059704;28;20033;-77
2023/06/13 08:09:08;;;;;;;6.05;1.63;;;25.50;36.40;;;;;;5060746;28;20381;-78
2023/06/13 08:11:35;;;;;;;2.65;1.42;;;25.50;37.00;;;;;;5062220;28;20045;-76
2023/06/13 08:14:01;;;;;;;2.10;1.20;;;25.50;37.00;;;;;;5060163;28;20385;-78
2023/06/13 08:16:28;;;;;;;3.47;1.63;;;25.40;36.90;;;;;;5075152;28;20408;-78
2023/06/13 08:18:54;;;;;;;3.45;1.30;;;25.30;36.80;;;;;;5060525;28;20037;-74
2023/06/13 08:21:20;;;;;;;4.03;1.40;;;25.30;37.20;;;;;;5060042;28;20039;-77
2023/06/13 08:23:46;;;;;;;3.75;1.83;;;25.30;38.20;;;;;;5058360;28;20051;-74
2023/06/13 08:26:13;;;;;;;6.22;1.45;;;25.20;38.70;;;;;;5062149;28;20127;-76
2023/06/13 08:28:39;;;;;;;4.05;1.50;;;25.20;40.10;;;;;;5061211;28;20036;-76
2023/06/13 08:31:05;;;;;;;4.60;1.50;;;25.20;39.00;;;;;;5061521;28;20697;-75
2023/06/13 08:33:31;;;;;;;2.50;1.55;;;25.10;40.00;;;;;;5064528;28;20415;-76
2023/06/13 08:35:57;;;;;;;3.38;1.75;;;25.20;39.70;;;;;;5064986;28;20036;-75
2023/06/13 08:38:24;;;;;;;5.70;1.60;;;25.10;39.90;;;;;;5063837;28;20074;-75
2023/06/13 08:40:50;;;;;;;4.10;1.40;;;25.10;40.60;;;;;;5062311;28;20072;-80
2023/06/13 08:43:16;;;;;;;4.80;1.48;;;25.00;40.60;;;;;;5062376;28;20037;-77
2023/06/13 08:45:42;;;;;;;3.63;1.35;;;25.00;40.40;;;;;;5065156;28;20051;-74
2023/06/13 08:48:08;;;;;;;2.75;1.50;;;25.00;40.40;;;;;;5063003;28;20403;-74
2023/06/13 08:50:34;;;;;;;4.97;2.00;;;25.00;40.50;;;;;;5062684;28;20119;-76
2023/06/13 08:53:01;;;;;;;6.45;1.98;;;25.00;40.70;;;;;;5063256;28;20135;-75
2023/06/13 08:55:28;;;;;;;3.67;2.08;;;24.90;41.10;;;;;;5061435;28;20495;-76
2023/06/13 08:57:56;;;;;;;1.58;1.40;;;24.90;40.60;;;;;;5061718;28;20040;-74
2023/06/13 09:00:25;;;;;;;6.03;2.10;;;24.90;40.70;;;;;;5062862;28;20036;-76
2023/06/13 09:02:53;;;;;;;3.70;1.65;;;24.80;41.20;;;;;;5062138;28;20025;-75
2023/06/13 09:05:19;;;;;;;4.70;2.08;;;24.80;40.70;;;;;;5062570;28;20068;-73
2023/06/13 09:07:46;;;;;;;3.38;1.80;;;24.80;41.10;;;;;;5061844;28;20032;-73
2023/06/13 09:10:13;;;;;;;28.13;2.47;;;24.70;40.90;;;;;;5062454;28;20057;-73
2023/06/13 09:12:41;;;;;;;3.45;1.65;;;24.70;41.00;;;;;;5063718;28;20442;-75
2023/06/13 09:15:08;;;;;;;7.43;2.40;;;24.70;41.90;;;;;;5067513;28;20090;-75
2023/06/13 09:17:35;;;;;;;4.45;2.08;;;24.60;41.50;;;;;;5064965;28;20082;-74
2023/06/13 09:20:01;;;;;;;3.60;1.75;;;24.60;40.90;;;;;;5060979;28;20035;-75
2023/06/13 09:22:28;;;;;;;4.80;2.10;;;24.50;41.30;;;;;;5062470;28;20033;-76
2023/06/13 09:24:55;;;;;;;6.82;1.98;;;24.50;41.70;;;;;;5067050;28;20044;-75
2023/06/13 09:27:22;;;;;;;5.75;1.70;;;24.50;41.50;;;;;;5066339;28;20028;-73
2023/06/13 09:29:51;;;;;;;4.40;1.77;;;24.40;41.30;;;;;;5066176;28;20048;-73
2023/06/13 09:32:20;;;;;;;3.03;1.58;;;24.50;41.00;;;;;;5066128;28;20054;-75
2023/06/13 09:34:48;;;;;;;8.07;1.77;;;24.40;41.30;;;;;;5065887;28;20062;-75
2023/06/13 09:37:15;;;;;;;5.43;1.70;;;24.40;41.80;;;;;;5066472;28;20032;-74
2023/06/13 09:39:51;;;;;;;3.95;1.67;;;24.30;41.20;;;;;;5066629;28;20033;-75
2023/06/13 09:42:23;;;;;;;7.78;1.70;;;24.20;41.10;;;;;;5066423;28;20028;-76
2023/06/13 09:44:51;;;;;;;5.22;1.60;;;24.30;41.60;;;;;;5061650;28;20135;-78
2023/06/13 09:47:22;;;;;;;5.63;1.83;;;24.20;41.70;;;;;;5061894;28;20111;-76
2023/06/13 09:49:54;;;;;;;3.15;1.65;;;24.20;40.80;;;;;;5061160;28;20064;-76
2023/06/13 09:52:24;;;;;;;3.05;1.83;;;24.00;39.20;;;;;;5061050;28;20430;-74
2023/06/13 09:54:52;;;;;;;6.90;2.25;;;23.90;38.70;;;;;;5061168;28;20024;-80
2023/06/13 09:57:19;;;;;;;6.50;2.50;;;23.90;40.70;;;;;;5061727;28;20419;-78
2023/06/13 09:59:47;;;;;;;11.00;2.30;;;23.90;42.80;;;;;;5057387;28;20491;-79
2023/06/13 10:02:19;;;;;;;4.88;2.10;;;24.00;43.60;;;;;;5063426;28;20028;-79
2023/06/13 10:04:49;;;;;;;4.72;2.33;;;23.90;42.20;;;;;;5060969;28;20258;-78
2023/06/13 10:07:16;;;;;;;2.38;1.75;;;23.80;43.30;;;;;;5062268;28;20029;-77
2023/06/13 10:09:42;;;;;;;5.07;2.10;;;23.60;39.10;;;;;;5062649;28;20110;-79
2023/06/13 10:12:11;;;;;;;3.00;2.00;;;23.40;38.60;;;;;;5060678;28;20064;-78
2023/06/13 10:14:41;;;;;;;5.90;1.92;;;23.40;41.00;;;;;;5063457;28;20119;-78
2023/06/13 10:17:11;;;;;;;4.22;1.98;;;23.40;39.30;;;;;;5076561;28;20075;-78
2023/06/13 10:19:39;;;;;;;6.22;2.00;;;23.40;41.40;;;;;;5059101;28;20098;-77
2023/06/13 10:22:10;;;;;;;4.35;2.20;;;23.40;42.10;;;;;;5058671;28;20424;-77
2023/06/13 10:24:38;;;;;;;3.33;1.85;;;23.40;42.70;;;;;;5062342;28;20037;-77
2023/06/13 10:27:07;;;;;;;4.05;1.67;;;23.40;41.90;;;;;;5064427;28;20043;-77
2023/06/13 10:30:08;;;;;;;4.00;2.08;;;23.40;42.20;;;;;;5059869;28;20047;-78
2023/06/13 10:33:02;;;;;;;2.45;2.17;;;23.50;42.40;;;;;;5060084;28;20048;-79
2023/06/13 10:35:40;;;;;;;2.60;1.70;;;23.50;42.10;;;;;;5059394;28;20047;-77
2023/06/13 10:38:14;;;;;;;2.85;1.90;;;23.60;43.20;;;;;;5061884;28;20044;-78
2023/06/13 10:41:04;;;;;;;3.67;1.83;;;23.60;42.50;;;;;;5059995;28;20044;-78
2023/06/13 10:44:00;;;;;;;9.68;2.13;;;23.50;42.40;;;;;;5059647;28;20334;-76
2023/06/13 10:46:26;;;;;;;3.10;2.30;;;23.50;42.70;;;;;;5038017;28;20040;-77
2023/06/13 10:48:53;;;;;;;6.05;2.08;;;23.50;42.30;;;;;;5040579;28;20065;-78
2023/06/13 10:51:37;;;;;;;3.17;1.80;;;23.50;42.90;;;;;;5024707;28;20124;-78
2023/06/13 10:54:03;;;;;;;4.65;1.90;;;23.50;42.50;;;;;;5023966;28;20123;-78
2023/06/13 10:56:31;;;;;;;5.65;1.85;;;23.40;41.60;;;;;;5038109;28;20431;-77
2023/06/13 10:59:04;;;;;;;3.08;1.65;;;23.40;41.90;;;;;;5036696;28;20041;-78
2023/06/13 11:01:32;;;;;;;4.60;1.70;;;23.40;42.50;;;;;;5036913;28;20032;-77
2023/06/13 11:04:12;;;;;;;2.17;1.70;;;23.50;42.70;;;;;;5018229;28;21267;-78
2023/06/13 11:06:40;;;;;;;2.55;1.90;;;23.50;42.80;;;;;;5038046;28;20079;-77
2023/06/13 11:09:14;;;;;;;2.15;1.60;;;23.50;42.60;;;;;;5024027;28;20082;-76
2023/06/13 11:11:55;;;;;;;3.75;1.92;;;23.50;43.10;;;;;;5038309;28;20048;-76
2023/06/13 11:14:36;;;;;;;3.45;1.95;;;23.60;42.50;;;;;;5036772;28;20037;-78
2023/06/13 11:17:03;;;;;;;3.10;1.88;;;23.60;42.90;;;;;;5038254;28;20045;-77
2023/06/13 11:19:32;;;;;;;3.08;1.60;;;23.60;42.70;;;;;;5037821;28;20034;-77
2023/06/13 11:22:03;;;;;;;5.18;2.10;;;23.60;42.60;;;;;;5037864;28;20037;-78
2023/06/13 11:24:32;;;;;;;4.72;2.28;;;23.60;41.90;;;;;;5058979;28;20044;-77
2023/06/13 11:27:03;;;;;;;3.28;2.08;;;23.50;41.80;;;;;;5057700;28;20550;-79
2023/06/13 11:29:33;;;;;;;2.40;1.60;;;23.50;41.60;;;;;;5059170;28;20476;-78
2023/06/13 11:32:01;;;;;;;3.58;1.95;;;23.50;42.00;;;;;;5058219;28;20036;-78
2023/06/13 11:34:38;;;;;;;2.95;2.17;;;23.50;42.60;;;;;;5057233;28;20067;-74
2023/06/13 11:37:29;;;;;;;3.60;1.85;;;23.50;42.50;;;;;;5057612;28;20028;-77
2023/06/13 11:39:57;;;;;;;2.35;1.88;;;23.50;43.00;;;;;;5060041;28;20037;-75
2023/06/13 11:42:24;;;;;;;2.40;1.88;;;23.40;41.80;;;;;;5074956;28;20044;-77
2023/06/13 11:44:50;;;;;;;5.05;2.25;;;23.40;41.80;;;;;;5059305;28;20407;-76
2023/06/13 11:47:17;;;;;;;3.83;1.98;;;23.40;41.80;;;;;;5059056;28;20098;-76
2023/06/13 11:49:55;;;;;;;2.47;1.65;;;23.40;41.70;;;;;;5061048;28;20033;-77
2023/06/13 11:52:21;;;;;;;3.03;1.83;;;23.40;41.70;;;;;;5057846;28;20037;-77
2023/06/13 11:54:48;;;;;;;2.10;1.90;;;23.40;42.10;;;;;;5062198;28;20043;-76
2023/06/13 11:57:15;;;;;;;1.80;1.70;;;23.40;42.70;;;;;;5061787;28;20040;-77
2023/06/13 11:59:41;;;;;;;3.25;2.15;;;23.40;42.00;;;;;;5058720;28;20035;-78
2023/06/13 12:02:08;;;;;;;5.15;1.98;;;23.40;41.60;;;;;;5058047;28;20176;-76
2023/06/13 12:04:35;;;;;;;3.97;1.90;;;23.40;41.60;;;;;;5076098;28;20504;-78
2023/06/13 12:07:06;;;;;;;2.72;1.75;;;23.40;41.80;;;;;;5063187;28;20415;-77
2023/06/13 12:09:32;;;;;;;2.10;1.90;;;23.40;41.30;;;;;;5062904;28;20036;-77
2023/06/13 12:11:58;;;;;;;4.07;1.92;;;23.40;41.50;;;;;;5061173;28;20029;-77
2023/06/13 12:14:24;;;;;;;4.15;2.22;;;23.40;41.20;;;;;;5062726;28;20040;-78
2023/06/13 12:16:54;;;;;;;2.92;2.30;;;23.40;41.00;;;;;;5061607;28;20044;-77
2023/06/13 12:19:22;;;;;;;2.65;2.00;;;23.40;40.60;;;;;;5065032;28;20098;-76
2023/06/13 12:21:55;;;;;;;2.47;2.10;;;23.30;40.30;;;;;;5063133;28;20044;-76
2023/06/13 12:24:25;;;;;;;4.50;2.45;;;23.40;41.30;;;;;;5061938;28;20033;-77
2023/06/13 12:26:52;;;;;;;3.00;1.85;;;23.40;41.60;;;;;;5061549;28;20670;-77
2023/06/13 12:29:23;;;;;;;2.72;2.00;;;23.40;41.90;;;;;;5062218;28;20428;-78
2023/06/13 12:31:58;;;;;;;4.15;2.20;;;23.40;41.60;;;;;;5058008;28;20086;-78
2023/06/13 12:34:29;;;;;;;2.58;1.77;;;23.40;42.00;;;;;;5063779;28;20585;-77
2023/06/13 12:37:01;;;;;;;4.72;2.15;;;23.50;42.20;;;;;;5063203;28;20656;-77
2023/06/13 12:39:30;;;;;;;5.03;1.98;;;23.50;42.10;;;;;;5061742;28;20037;-76
2023/06/13 12:42:00;;;;;;;3.10;1.90;;;23.50;42.20;;;;;;5061695;28;20032;-77
2023/06/13 12:44:30;;;;;;;3.22;2.17;;;23.50;41.10;;;;;;5063436;28;20033;-78
2023/06/13 12:46:59;;;;;;;3.63;1.80;;;23.50;41.90;;;;;;5077218;28;20082;-77
2023/06/13 12:49:25;;;;;;;3.60;2.17;;;23.50;41.70;;;;;;5062396;28;20536;-78
2023/06/13 12:51:54;;;;;;;3.90;2.60;;;23.40;40.70;;;;;;5060791;28;20036;-76